Time;durP1;ratioP1;P1;durP2;ratioP2;P2;SDS_P1;SDS_P2;PMS_P1;PMS_P2;Temp;Humidity;BMP_temperature;BMP_pressure;BME280_temperature;BME280_humidity;BME280_pressure;Samples;Min_cycle;Max_cycle;Signal;HPM_P1;HPM_P2
2024/01/23 00:02:00;;;;;;;52.58;29.17;;;-0.10;99.90;;;;;;4920636;28;20095;-74
2024/01/23 00:04:26;;;;;;;57.35;29.17;;;-0.10;99.90;;;;;;4926621;28;20102;-75
2024/01/23 00:06:51;;;;;;;56.85;28.05;;;-0.10;99.90;;;;;;4924176;28;20051;-75
2024/01/23 00:09:17;;;;;;;48.92;27.58;;;-0.10;99.90;;;;;;4920299;28;20055;-74
2024/01/23 00:11:43;;;;;;;52.10;27.75;;;-0.10;99.90;;;;;;4922802;28;20189;-75
2024/01/23 00:14:09;;;;;;;55.05;28.10;;;-0.10;99.90;;;;;;4926381;28;20034;-75
2024/01/23 00:16:34;;;;;;;54.72;28.15;;;-0.20;99.90;;;;;;4927711;28;20050;-74
2024/01/23 00:19:00;;;;;;;53.15;29.75;;;-0.10;99.90;;;;;;4924966;28;20391;-75
2024/01/23 00:21:26;;;;;;;53.28;29.02;;;-0.10;99.90;;;;;;4924580;28;20039;-75
2024/01/23 00:23:52;;;;;;;54.85;29.73;;;0.00;99.90;;;;;;4925042;28;20106;-74
2024/01/23 00:26:17;;;;;;;55.08;29.85;;;0.00;99.90;;;;;;4927626;28;20497;-76
2024/01/23 00:28:43;;;;;;;52.40;27.88;;;-0.10;99.90;;;;;;4925703;28;20067;-75
2024/01/23 00:31:09;;;;;;;57.17;29.00;;;-0.10;99.90;;;;;;4921800;28;20151;-75
2024/01/23 00:33:35;;;;;;;51.70;27.75;;;-0.10;99.90;;;;;;4920212;28;20130;-74
2024/01/23 00:36:00;;;;;;;48.80;27.85;;;-0.10;99.90;;;;;;4919875;28;20035;-76
2024/01/23 00:38:26;;;;;;;54.55;29.25;;;-0.10;99.90;;;;;;4923785;28;20039;-76
2024/01/23 00:40:51;;;;;;;54.05;28.48;;;0.00;99.90;;;;;;4922483;28;20347;-75
2024/01/23 00:43:17;;;;;;;52.17;27.77;;;0.00;99.90;;;;;;4922022;28;20033;-76
2024/01/23 00:45:43;;;;;;;53.90;28.23;;;0.00;99.90;;;;;;4916270;28;20042;-64
2024/01/23 00:48:08;;;;;;;43.80;25.52;;;0.10;99.90;;;;;;4918893;28;20364;-64
2024/01/23 00:50:34;;;;;;;47.70;26.83;;;0.10;99.90;;;;;;4918815;28;20031;-64
2024/01/23 00:53:00;;;;;;;47.38;25.73;;;0.10;99.90;;;;;;4918863;28;20617;-64
2024/01/23 00:55:25;;;;;;;50.22;26.80;;;0.00;99.90;;;;;;4920479;28;20038;-65
2024/01/23 00:57:51;;;;;;;49.88;27.42;;;-0.10;99.90;;;;;;4924275;28;20043;-64
2024/01/23 01:00:17;;;;;;;55.17;28.65;;;-0.10;99.90;;;;;;4917539;28;20166;-65
2024/01/23 01:02:42;;;;;;;48.17;27.10;;;-0.20;99.90;;;;;;4924263;28;20023;-64
2024/01/23 01:05:08;;;;;;;49.65;27.67;;;-0.30;99.90;;;;;;4922060;28;20113;-64
2024/01/23 01:07:33;;;;;;;54.85;27.83;;;-0.30;99.90;;;;;;4924228;28;20038;-65
2024/01/23 01:09:59;;;;;;;55.08;28.00;;;-0.40;99.90;;;;;;4913343;28;20051;-65
2024/01/23 01:12:25;;;;;;;56.05;30.05;;;-0.30;99.90;;;;;;4916559;28;20024;-66
2024/01/23 01:14:50;;;;;;;54.40;28.02;;;-0.20;99.90;;;;;;4921362;28;20122;-66
2024/01/23 01:17:16;;;;;;;57.58;28.75;;;-0.20;99.90;;;;;;4920962;28;20500;-65
2024/01/23 01:19:41;;;;;;;53.65;27.77;;;-0.10;99.90;;;;;;4920741;28;20047;-66
2024/01/23 01:22:07;;;;;;;59.05;29.58;;;0.00;99.90;;;;;;4919471;28;20763;-75
2024/01/23 01:24:33;;;;;;;60.65;30.08;;;0.10;99.90;;;;;;4918178;28;20138;-76
2024/01/23 01:26:58;;;;;;;58.35;28.80;;;0.20;99.90;;;;;;4918908;28;20031;-76
2024/01/23 01:29:24;;;;;;;57.50;28.90;;;0.30;99.90;;;;;;4924250;28;20111;-76
2024/01/23 01:31:50;;;;;;;60.25;29.80;;;0.30;99.90;;;;;;4922273;28;20063;-74
2024/01/23 01:34:15;;;;;;;52.45;28.35;;;0.30;99.90;;;;;;4907594;28;20957;-74
2024/01/23 01:36:41;;;;;;;52.50;27.17;;;0.30;99.90;;;;;;4921131;28;20082;-73
2024/01/23 01:39:06;;;;;;;58.88;29.90;;;0.30;99.90;;;;;;4939068;28;20042;-74
2024/01/23 01:41:32;;;;;;;58.13;29.63;;;0.40;99.90;;;;;;4920925;28;20101;-74
2024/01/23 01:43:58;;;;;;;54.20;27.38;;;0.40;99.90;;;;;;4915855;28;20153;-75
2024/01/23 01:46:26;;;;;;;54.35;28.50;;;0.40;99.90;;;;;;4920560;28;20186;-74
2024/01/23 01:48:52;;;;;;;48.05;27.92;;;0.40;99.90;;;;;;4920189;28;20032;-74
2024/01/23 01:51:22;;;;;;;53.47;28.08;;;0.50;99.90;;;;;;4909360;28;20339;-74
2024/01/23 01:53:48;;;;;;;49.53;27.63;;;0.50;99.90;;;;;;4915010;28;20059;-73
2024/01/23 01:56:14;;;;;;;55.58;28.85;;;0.50;99.90;;;;;;4919819;28;20135;-74
2024/01/23 01:58:41;;;;;;;53.60;30.50;;;0.50;99.90;;;;;;4919456;28;21222;-74
2024/01/23 02:01:07;;;;;;;52.58;28.83;;;0.50;99.90;;;;;;4918590;28;20051;-75
2024/01/23 02:03:32;;;;;;;51.53;28.48;;;0.50;99.90;;;;;;4925013;28;20031;-76
2024/01/23 02:06:00;;;;;;;55.05;28.42;;;0.50;99.90;;;;;;4920251;28;20522;-74
2024/01/23 02:08:27;;;;;;;47.63;26.20;;;0.40;99.90;;;;;;4921603;28;20428;-76
2024/01/23 02:10:54;;;;;;;53.85;30.67;;;0.40;99.90;;;;;;4918057;28;20031;-76
2024/01/23 02:13:19;;;;;;;49.88;29.27;;;0.40;99.90;;;;;;4903253;28;20087;-76
2024/01/23 02:15:45;;;;;;;87.13;55.50;;;0.40;99.90;;;;;;4923805;28;20038;-75
2024/01/23 02:18:11;;;;;;;56.50;35.35;;;0.30;99.90;;;;;;4919180;28;20070;-76
2024/01/23 02:20:36;;;;;;;47.50;27.58;;;0.30;99.90;;;;;;4921068;28;20040;-75
2024/01/23 02:23:02;;;;;;;61.40;33.22;;;0.20;99.90;;;;;;4920494;28;20047;-76
2024/01/23 02:25:28;;;;;;;57.67;35.10;;;0.30;99.90;;;;;;4919922;28;20483;-76
2024/01/23 02:27:54;;;;;;;51.53;28.55;;;0.20;99.90;;;;;;4916548;28;20039;-74
2024/01/23 02:30:19;;;;;;;56.33;29.70;;;0.20;99.90;;;;;;4916167;28;20535;-75
2024/01/23 02:32:46;;;;;;;50.05;27.40;;;0.30;99.90;;;;;;4918179;28;20627;-75
2024/01/23 02:35:13;;;;;;;51.03;27.80;;;0.20;99.90;;;;;;4919973;28;20044;-72
2024/01/23 02:37:39;;;;;;;50.90;27.70;;;0.20;99.90;;;;;;4922982;28;20023;-75
2024/01/23 02:40:05;;;;;;;59.03;28.67;;;0.30;99.90;;;;;;4923826;28;20070;-75
2024/01/23 02:42:31;;;;;;;52.75;27.98;;;0.30;99.90;;;;;;4923391;28;20031;-74
2024/01/23 02:44:57;;;;;;;52.10;27.83;;;0.30;99.90;;;;;;4919830;28;20038;-74
2024/01/23 02:47:23;;;;;;;54.88;28.13;;;0.30;99.90;;;;;;4922675;28;20035;-75
2024/01/23 02:49:49;;;;;;;56.20;28.10;;;0.30;99.90;;;;;;4917770;28;20653;-74
2024/01/23 02:52:14;;;;;;;51.88;27.88;;;0.30;99.90;;;;;;4919357;28;20031;-75
2024/01/23 02:54:40;;;;;;;50.92;27.85;;;0.40;99.90;;;;;;4921808;28;20042;-65
2024/01/23 02:57:05;;;;;;;54.25;28.38;;;0.40;99.90;;;;;;4923666;28;20035;-65
2024/01/23 02:59:31;;;;;;;46.90;27.60;;;0.40;99.90;;;;;;4922206;28;20094;-65
2024/01/23 03:01:57;;;;;;;50.47;27.42;;;0.50;99.90;;;;;;4922697;28;20084;-65
2024/01/23 03:04:22;;;;;;;52.72;28.27;;;0.50;99.90;;;;;;4922113;28;20035;-64
2024/01/23 03:06:48;;;;;;;52.20;28.42;;;0.50;99.90;;;;;;4922876;28;20389;-64
2024/01/23 03:09:14;;;;;;;50.90;27.58;;;0.60;99.90;;;;;;4920632;28;20069;-64
2024/01/23 03:11:40;;;;;;;52.85;29.00;;;0.60;99.90;;;;;;4924239;28;24434;-64
2024/01/23 03:14:06;;;;;;;52.33;27.40;;;0.50;99.90;;;;;;4917525;28;20097;-67
2024/01/23 03:16:31;;;;;;;49.50;26.48;;;0.50;99.90;;;;;;4921518;28;20058;-67
2024/01/23 03:18:57;;;;;;;53.67;29.42;;;0.50;99.90;;;;;;4920960;28;20034;-67
2024/01/23 03:21:23;;;;;;;51.05;27.65;;;0.50;99.90;;;;;;4920141;28;20132;-67
2024/01/23 03:23:48;;;;;;;51.85;28.10;;;0.60;99.90;;;;;;4922221;28;20082;-64
2024/01/23 03:26:14;;;;;;;50.92;27.63;;;0.50;99.90;;;;;;4920943;28;20031;-64
2024/01/23 03:28:40;;;;;;;52.20;28.90;;;0.60;99.90;;;;;;4921206;28;20525;-64
2024/01/23 03:31:06;;;;;;;53.05;28.60;;;0.60;99.90;;;;;;4923961;28;20033;-74
2024/01/23 03:33:32;;;;;;;50.97;27.63;;;0.60;99.90;;;;;;4923154;28;20114;-74
2024/01/23 03:35:58;;;;;;;48.28;27.23;;;0.50;99.90;;;;;;4923663;28;20031;-73
2024/01/23 03:38:24;;;;;;;53.75;29.83;;;0.50;99.90;;;;;;4922983;28;21706;-74
2024/01/23 03:40:49;;;;;;;52.90;29.23;;;0.40;99.90;;;;;;4924639;28;20245;-74
2024/01/23 03:43:15;;;;;;;56.78;29.35;;;0.40;99.90;;;;;;4923267;28;20067;-74
2024/01/23 03:45:41;;;;;;;56.13;29.75;;;0.40;99.90;;;;;;4922680;28;20109;-74
2024/01/23 03:48:07;;;;;;;49.88;27.85;;;0.40;99.90;;;;;;4920016;28;21694;-74
2024/01/23 03:50:32;;;;;;;55.25;29.38;;;0.40;99.90;;;;;;4923854;28;20036;-73
2024/01/23 03:52:58;;;;;;;56.40;30.23;;;0.40;99.90;;;;;;4922015;28;20662;-76
2024/01/23 03:55:25;;;;;;;60.97;34.35;;;0.40;99.90;;;;;;4920607;28;20507;-76
2024/01/23 03:57:51;;;;;;;55.38;29.67;;;0.40;99.90;;;;;;4924104;28;20589;-76
2024/01/23 04:00:17;;;;;;;52.70;28.70;;;0.40;99.90;;;;;;4920802;28;20515;-76
2024/01/23 04:02:43;;;;;;;54.53;29.02;;;0.40;99.90;;;;;;4921262;28;20372;-76
2024/01/23 04:05:09;;;;;;;52.20;28.30;;;0.50;99.90;;;;;;4921669;28;20644;-77
2024/01/23 04:07:35;;;;;;;49.72;27.65;;;0.50;99.90;;;;;;4924659;28;20027;-76
2024/01/23 04:10:02;;;;;;;55.20;29.40;;;0.50;99.90;;;;;;4920587;28;20134;-74
2024/01/23 04:12:28;;;;;;;51.13;29.77;;;0.50;99.90;;;;;;4936400;28;20098;-75
2024/01/23 04:14:53;;;;;;;57.25;29.23;;;0.40;99.90;;;;;;4920494;28;20500;-75
2024/01/23 04:17:19;;;;;;;53.00;28.75;;;0.30;99.90;;;;;;4916984;28;20466;-74
2024/01/23 04:19:45;;;;;;;52.10;28.33;;;0.30;99.90;;;;;;4921948;28;20162;-77
2024/01/23 04:22:11;;;;;;;51.50;28.30;;;0.30;99.90;;;;;;4920468;28;20054;-75
2024/01/23 04:24:37;;;;;;;47.55;28.02;;;0.30;99.90;;;;;;4925651;28;20122;-75
2024/01/23 04:27:04;;;;;;;52.63;29.02;;;0.20;99.90;;;;;;4918398;28;20865;-74
2024/01/23 04:29:30;;;;;;;49.28;27.15;;;0.10;99.90;;;;;;4923029;28;20062;-74
2024/01/23 04:31:55;;;;;;;56.20;30.20;;;0.10;99.90;;;;;;4923948;28;20512;-75
2024/01/23 04:34:21;;;;;;;54.63;29.88;;;0.10;99.90;;;;;;4921672;28;20092;-77
2024/01/23 04:36:48;;;;;;;56.63;30.05;;;0.20;99.90;;;;;;4923203;28;20031;-77
2024/01/23 04:39:14;;;;;;;56.45;29.70;;;0.20;99.90;;;;;;4927374;28;20035;-76
2024/01/23 04:41:40;;;;;;;53.38;29.05;;;0.20;99.90;;;;;;4921689;28;20150;-77
2024/01/23 04:44:05;;;;;;;55.92;29.23;;;0.30;99.90;;;;;;4922442;28;20081;-69
2024/01/23 04:46:31;;;;;;;53.25;28.42;;;0.20;99.90;;;;;;4925911;28;20031;-77
2024/01/23 04:48:57;;;;;;;54.88;29.20;;;0.00;99.90;;;;;;4928391;28;20114;-76
2024/01/23 04:51:22;;;;;;;81.90;44.00;;;-0.10;99.90;;;;;;4922199;28;20496;-76
2024/01/23 04:53:52;;;;;;;65.43;35.85;;;0.00;99.90;;;;;;4927598;28;20134;-75
2024/01/23 04:56:18;;;;;;;57.08;30.17;;;0.10;99.90;;;;;;4925593;28;20023;-76
2024/01/23 04:58:43;;;;;;;56.58;31.33;;;0.20;99.90;;;;;;4928623;28;20024;-76
2024/01/23 05:01:09;;;;;;;57.22;31.58;;;0.30;99.90;;;;;;4926619;28;20146;-76
2024/01/23 05:03:35;;;;;;;54.40;29.02;;;0.30;99.90;;;;;;4925329;28;20222;-76
2024/01/23 05:06:00;;;;;;;57.10;30.17;;;0.40;99.90;;;;;;4926523;28;20062;-76
2024/01/23 05:08:26;;;;;;;54.20;29.38;;;0.40;99.90;;;;;;4924760;28;20059;-75
2024/01/23 05:10:51;;;;;;;54.75;30.50;;;0.40;99.90;;;;;;4929107;28;20110;-76
2024/01/23 05:13:17;;;;;;;53.92;29.98;;;0.30;99.90;;;;;;4910976;28;20050;-75
2024/01/23 05:15:42;;;;;;;53.30;28.52;;;0.40;99.90;;;;;;4931714;28;20035;-76
2024/01/23 05:18:08;;;;;;;61.33;28.35;;;0.40;99.90;;;;;;4925049;28;20547;-76
2024/01/23 05:20:34;;;;;;;52.38;28.58;;;0.40;99.90;;;;;;4926808;28;20080;-66
2024/01/23 05:23:03;;;;;;;58.38;28.30;;;0.40;99.90;;;;;;4925460;28;20023;-66
2024/01/23 05:25:29;;;;;;;58.63;30.23;;;0.40;99.90;;;;;;4927167;28;20043;-65
2024/01/23 05:27:55;;;;;;;53.17;27.98;;;0.40;99.90;;;;;;4926088;28;20027;-66
2024/01/23 05:30:21;;;;;;;58.47;30.35;;;0.50;99.90;;;;;;4925399;28;20035;-66
2024/01/23 05:32:46;;;;;;;59.20;29.63;;;0.40;99.90;;;;;;4920864;28;20512;-66
2024/01/23 05:35:12;;;;;;;55.13;30.02;;;0.40;99.90;;;;;;4924421;28;20034;-65
2024/01/23 05:37:38;;;;;;;54.50;29.27;;;0.40;99.90;;;;;;4919911;28;20034;-65
2024/01/23 05:40:04;;;;;;;58.50;29.85;;;0.40;99.90;;;;;;4925166;28;20039;-66
2024/01/23 05:42:30;;;;;;;55.63;29.45;;;0.40;99.90;;;;;;4910421;28;20031;-66
2024/01/23 05:44:56;;;;;;;58.67;29.60;;;0.30;99.90;;;;;;4925449;28;20034;-66
2024/01/23 05:47:22;;;;;;;56.42;29.98;;;0.30;99.90;;;;;;4918934;28;20042;-65
2024/01/23 05:49:48;;;;;;;50.58;28.73;;;0.40;99.90;;;;;;4923601;28;20058;-65
2024/01/23 05:52:15;;;;;;;57.50;28.60;;;0.30;99.90;;;;;;4925503;28;20035;-65
2024/01/23 05:54:41;;;;;;;57.28;29.38;;;0.30;99.90;;;;;;4926910;28;20081;-66
2024/01/23 05:57:08;;;;;;;59.28;29.17;;;0.30;99.90;;;;;;4910374;29;20023;-66
2024/01/23 05:59:34;;;;;;;52.80;27.98;;;0.30;99.90;;;;;;4925732;28;20062;-66
2024/01/23 06:02:00;;;;;;;52.35;28.17;;;0.30;99.90;;;;;;4921612;28;20745;-66
2024/01/23 06:04:25;;;;;;;53.38;29.20;;;0.20;99.90;;;;;;4922483;28;20024;-65
2024/01/23 06:06:51;;;;;;;55.72;29.20;;;0.20;99.90;;;;;;4922520;28;20047;-66
2024/01/23 06:09:17;;;;;;;55.50;29.40;;;0.20;99.90;;;;;;4919874;28;20069;-66
2024/01/23 06:11:42;;;;;;;59.03;30.52;;;0.10;99.90;;;;;;4924876;28;20031;-66
2024/01/23 06:14:08;;;;;;;55.60;28.92;;;0.00;99.90;;;;;;4916675;28;20603;-67
2024/01/23 06:16:34;;;;;;;57.92;30.23;;;0.00;99.90;;;;;;4913274;28;20070;-75
2024/01/23 06:19:00;;;;;;;54.15;28.77;;;-0.10;99.90;;;;;;4920027;28;20033;-75
2024/01/23 06:21:25;;;;;;;51.58;28.50;;;-0.20;99.90;;;;;;4916208;28;20042;-76
2024/01/23 06:23:51;;;;;;;56.25;29.98;;;-0.20;99.90;;;;;;4915570;28;20673;-74
2024/01/23 06:26:17;;;;;;;57.90;30.02;;;-0.20;99.90;;;;;;4913557;28;20484;-77
2024/01/23 06:28:45;;;;;;;63.90;31.05;;;-0.30;99.90;;;;;;4915871;28;20038;-79
2024/01/23 06:31:11;;;;;;;71.88;34.03;;;-0.20;99.90;;;;;;4920045;28;20031;-79
2024/01/23 06:33:37;;;;;;;94.07;45.95;;;-0.20;99.90;;;;;;4916101;28;20755;-77
2024/01/23 06:36:03;;;;;;;92.72;45.40;;;-0.10;99.90;;;;;;4932485;28;20046;-77
2024/01/23 06:38:29;;;;;;;88.38;44.53;;;0.00;99.90;;;;;;4917856;28;20058;-77
2024/01/23 06:40:55;;;;;;;80.78;39.80;;;0.00;99.90;;;;;;4921752;28;20520;-79
2024/01/23 06:43:20;;;;;;;86.65;45.30;;;-0.10;99.90;;;;;;4923062;28;20524;-77
2024/01/23 06:45:46;;;;;;;105.38;53.58;;;0.00;99.90;;;;;;4918292;28;20036;-75
2024/01/23 06:48:11;;;;;;;100.00;54.45;;;0.00;99.90;;;;;;4922067;28;20034;-77
2024/01/23 06:50:37;;;;;;;58.30;31.17;;;0.00;99.90;;;;;;4921923;28;20110;-77
2024/01/23 06:53:03;;;;;;;55.92;27.50;;;-0.10;99.90;;;;;;4924359;28;20051;-80
2024/01/23 06:55:29;;;;;;;66.07;33.65;;;-0.10;99.90;;;;;;4929744;28;20205;-78
2024/01/23 06:57:54;;;;;;;83.25;39.03;;;-0.10;99.90;;;;;;4929597;28;20657;-78
2024/01/23 07:00:20;;;;;;;64.72;34.45;;;-0.10;99.90;;;;;;4919070;28;20467;-77
2024/01/23 07:02:46;;;;;;;58.80;29.80;;;-0.10;99.90;;;;;;4917137;28;20122;-78
2024/01/23 07:05:11;;;;;;;70.22;28.88;;;-0.20;99.90;;;;;;4926436;28;20075;-78
2024/01/23 07:07:37;;;;;;;55.50;28.75;;;-0.20;99.90;;;;;;4926349;28;20501;-78
2024/01/23 07:10:03;;;;;;;57.58;29.42;;;-0.20;99.90;;;;;;4921488;28;20047;-78
2024/01/23 07:12:28;;;;;;;67.45;32.53;;;-0.20;99.90;;;;;;4926812;28;20027;-77
2024/01/23 07:14:54;;;;;;;59.85;31.23;;;-0.10;99.90;;;;;;4926757;28;20043;-78
2024/01/23 07:17:20;;;;;;;57.78;29.90;;;-0.20;99.90;;;;;;4922604;28;20488;-78
2024/01/23 07:19:46;;;;;;;54.08;28.58;;;-0.20;99.90;;;;;;4923540;28;20559;-76
2024/01/23 07:22:11;;;;;;;61.45;29.23;;;-0.30;99.90;;;;;;4924527;28;20031;-79
2024/01/23 07:24:37;;;;;;;51.65;27.58;;;-0.30;99.90;;;;;;4928476;28;20160;-79
2024/01/23 07:27:02;;;;;;;54.70;29.50;;;-0.30;99.90;;;;;;4930020;28;20027;-77
2024/01/23 07:29:28;;;;;;;50.78;27.45;;;-0.40;99.90;;;;;;4903680;28;20188;-78
2024/01/23 07:31:54;;;;;;;56.08;28.23;;;-0.70;99.90;;;;;;4925632;28;20035;-78
2024/01/23 07:34:19;;;;;;;59.22;30.35;;;-0.70;99.90;;;;;;4911211;29;20409;-78
2024/01/23 07:36:45;;;;;;;61.25;30.42;;;-0.60;99.90;;;;;;4919831;28;20065;-78
2024/01/23 07:39:11;;;;;;;52.53;29.33;;;-0.50;99.90;;;;;;4914736;28;20530;-79
2024/01/23 07:41:37;;;;;;;79.22;46.70;;;-0.40;99.90;;;;;;4919511;28;20039;-77
2024/01/23 07:44:03;;;;;;;58.15;30.52;;;-0.40;99.90;;;;;;4919171;28;20105;-75
2024/01/23 07:46:28;;;;;;;56.47;27.80;;;-0.30;99.90;;;;;;4903646;28;20111;-76
2024/01/23 07:48:54;;;;;;;53.85;27.90;;;-0.30;99.90;;;;;;4917775;28;20040;-66
2024/01/23 07:51:20;;;;;;;52.95;26.98;;;-0.20;99.90;;;;;;4918435;28;20035;-66
2024/01/23 07:53:45;;;;;;;55.72;29.63;;;-0.30;99.90;;;;;;4924043;28;20135;-65
2024/01/23 07:56:11;;;;;;;52.05;28.17;;;-0.10;99.90;;;;;;4923618;28;20282;-66
2024/01/23 07:58:36;;;;;;;51.88;28.67;;;-0.10;99.90;;;;;;4912540;28;20046;-66
2024/01/23 08:01:03;;;;;;;57.38;29.73;;;-0.30;99.90;;;;;;4920306;28;20066;-65
2024/01/23 08:03:29;;;;;;;59.17;30.02;;;-0.40;99.90;;;;;;4922232;28;20525;-66
2024/01/23 08:05:54;;;;;;;55.33;29.23;;;-0.30;99.90;;;;;;4933073;28;20035;-64
2024/01/23 08:08:22;;;;;;;64.70;32.05;;;-0.40;99.90;;;;;;4934916;28;20062;-65
2024/01/23 08:10:49;;;;;;;57.10;30.48;;;-0.50;99.90;;;;;;4917269;28;20034;-64
2024/01/23 08:13:15;;;;;;;59.28;30.55;;;-0.40;99.90;;;;;;4933668;28;20060;-64
2024/01/23 08:15:41;;;;;;;57.92;29.83;;;-0.20;99.90;;;;;;4929631;28;21342;-63
2024/01/23 08:18:08;;;;;;;55.67;28.75;;;0.00;99.90;;;;;;4926891;28;20059;-63
2024/01/23 08:20:34;;;;;;;63.35;30.02;;;0.10;99.90;;;;;;4932263;28;20057;-63
2024/01/23 08:23:00;;;;;;;58.90;29.55;;;0.30;99.90;;;;;;4931559;28;20407;-64
2024/01/23 08:25:25;;;;;;;58.75;30.58;;;0.40;99.90;;;;;;4933081;28;20042;-64
2024/01/23 08:27:51;;;;;;;61.13;32.22;;;0.60;99.90;;;;;;4928001;28;20031;-64
2024/01/23 08:30:16;;;;;;;64.18;33.78;;;0.70;99.90;;;;;;4925368;28;20484;-64
2024/01/23 08:32:42;;;;;;;70.95;40.65;;;0.70;99.90;;;;;;4924772;28;20043;-64
2024/01/23 08:35:08;;;;;;;69.40;36.53;;;0.80;99.90;;;;;;4929227;28;20440;-63
2024/01/23 08:37:33;;;;;;;67.57;34.67;;;0.90;99.90;;;;;;4929921;28;20071;-63
2024/01/23 08:39:59;;;;;;;62.05;32.38;;;1.00;99.90;;;;;;4926854;28;20038;-64
2024/01/23 08:42:25;;;;;;;67.30;35.60;;;1.00;99.90;;;;;;4934316;28;20027;-72
2024/01/23 08:44:51;;;;;;;66.65;37.22;;;1.10;99.90;;;;;;4914978;28;20035;-73
2024/01/23 08:47:16;;;;;;;68.85;36.53;;;1.10;99.90;;;;;;4937548;28;20455;-73
2024/01/23 08:49:42;;;;;;;67.90;36.80;;;1.00;99.90;;;;;;4932994;28;20244;-73
2024/01/23 08:52:08;;;;;;;67.82;36.38;;;1.00;99.90;;;;;;4933570;28;20035;-71
2024/01/23 08:54:34;;;;;;;69.43;37.53;;;1.10;99.90;;;;;;4934869;28;20039;-73
2024/01/23 08:57:00;;;;;;;64.57;35.50;;;0.90;99.90;;;;;;4931460;28;20050;-73
2024/01/23 08:59:28;;;;;;;65.03;36.38;;;1.00;99.90;;;;;;4929423;28;20119;-73
2024/01/23 09:01:54;;;;;;;64.78;34.13;;;1.00;99.90;;;;;;4935529;28;20047;-63
2024/01/23 09:04:20;;;;;;;60.38;34.42;;;1.10;99.90;;;;;;4927678;28;20035;-63
2024/01/23 09:06:45;;;;;;;63.95;34.15;;;1.20;99.90;;;;;;4929135;28;20595;-64
2024/01/23 09:09:11;;;;;;;59.33;32.17;;;1.40;99.90;;;;;;4929819;28;20712;-63
2024/01/23 09:11:37;;;;;;;58.15;32.03;;;1.50;99.90;;;;;;4927975;28;20039;-64
2024/01/23 09:14:03;;;;;;;64.57;33.88;;;1.60;99.90;;;;;;4927332;28;20027;-64
2024/01/23 09:16:28;;;;;;;62.83;32.97;;;1.60;99.90;;;;;;4924791;28;20165;-64
2024/01/23 09:18:55;;;;;;;65.38;31.75;;;1.60;99.90;;;;;;4923490;28;20515;-64
2024/01/23 09:21:23;;;;;;;70.50;38.88;;;1.70;99.90;;;;;;4930535;28;20078;-64
2024/01/23 09:23:49;;;;;;;57.13;29.88;;;1.70;99.90;;;;;;4924099;28;20041;-64
2024/01/23 09:26:14;;;;;;;54.50;30.58;;;1.70;99.90;;;;;;4929126;28;20228;-64
2024/01/23 09:28:40;;;;;;;59.33;32.72;;;1.70;99.90;;;;;;4925190;28;20039;-64
2024/01/23 09:31:06;;;;;;;55.53;29.85;;;1.80;99.90;;;;;;4926793;28;20093;-64
2024/01/23 09:33:31;;;;;;;51.13;28.67;;;1.80;99.90;;;;;;4927834;28;20047;-63
2024/01/23 09:35:57;;;;;;;56.92;31.80;;;1.80;99.90;;;;;;4929602;28;20035;-63
2024/01/23 09:38:22;;;;;;;55.58;30.77;;;1.70;99.90;;;;;;4932195;28;20165;-63
2024/01/23 09:40:50;;;;;;;57.00;30.60;;;1.60;99.90;;;;;;4919277;28;20124;-63
2024/01/23 09:43:20;;;;;;;66.80;33.65;;;1.70;99.90;;;;;;4928606;28;20066;-63
2024/01/23 09:45:50;;;;;;;65.95;36.63;;;1.80;99.90;;;;;;4911716;28;20912;-64
2024/01/23 09:48:16;;;;;;;58.38;35.00;;;1.90;99.90;;;;;;4927838;28;20035;-63
2024/01/23 09:50:44;;;;;;;56.08;30.85;;;2.10;99.90;;;;;;4929521;28;20039;-63
2024/01/23 09:53:10;;;;;;;55.88;29.63;;;2.30;99.90;;;;;;4929175;28;20028;-64
2024/01/23 09:55:37;;;;;;;53.20;29.73;;;2.40;99.90;;;;;;4926557;28;20670;-63
2024/01/23 09:58:03;;;;;;;51.88;30.75;;;2.50;99.90;;;;;;4919540;28;20118;-64
2024/01/23 10:00:29;;;;;;;56.17;30.60;;;2.60;99.90;;;;;;4927317;28;20027;-64
2024/01/23 10:02:55;;;;;;;52.20;28.80;;;2.60;99.90;;;;;;4927580;28;20066;-64
2024/01/23 10:05:22;;;;;;;54.58;30.50;;;2.70;99.90;;;;;;4927399;28;20023;-63
2024/01/23 10:07:48;;;;;;;56.60;29.45;;;2.70;99.90;;;;;;4929972;28;20995;-63
2024/01/23 10:10:17;;;;;;;52.83;29.95;;;2.60;99.90;;;;;;4924304;28;20354;-63
2024/01/23 10:12:47;;;;;;;54.67;31.40;;;2.40;99.90;;;;;;4928917;28;20120;-63
2024/01/23 10:15:16;;;;;;;51.90;30.20;;;2.50;99.90;;;;;;4907352;29;20131;-64
2024/01/23 10:17:43;;;;;;;51.45;30.80;;;2.60;99.90;;;;;;4926666;28;20058;-64
2024/01/23 10:20:09;;;;;;;52.60;31.05;;;2.70;99.90;;;;;;4923885;28;20073;-63
2024/01/23 10:22:35;;;;;;;54.75;30.45;;;2.90;99.90;;;;;;4905389;28;20768;-64
2024/01/23 10:25:20;;;;;;;54.70;30.20;;;3.00;99.90;;;;;;4929089;28;20671;-64
2024/01/23 10:27:50;;;;;;;53.35;30.27;;;3.10;99.90;;;;;;4919122;28;20047;-64
2024/01/23 10:30:16;;;;;;;53.20;30.90;;;3.20;99.90;;;;;;4928119;28;20062;-64
2024/01/23 10:32:42;;;;;;;46.83;28.83;;;3.30;99.90;;;;;;4921946;28;20035;-64
2024/01/23 10:35:11;;;;;;;49.20;28.90;;;3.40;99.90;;;;;;4927481;28;20031;-74
2024/01/23 10:37:38;;;;;;;47.78;29.02;;;3.50;99.90;;;;;;4913732;28;20438;-73
2024/01/23 10:40:05;;;;;;;48.63;29.70;;;3.50;99.90;;;;;;4922546;28;20040;-74
2024/01/23 10:42:33;;;;;;;47.65;29.85;;;3.40;99.90;;;;;;4930759;28;20789;-74
2024/01/23 10:45:01;;;;;;;41.53;25.95;;;3.50;99.90;;;;;;4921222;28;20190;-75
2024/01/23 10:47:28;;;;;;;34.50;21.73;;;3.50;99.90;;;;;;4931785;28;20695;-74
2024/01/23 10:49:54;;;;;;;159.27;74.22;;;3.60;99.90;;;;;;4922045;28;20035;-74
2024/01/23 10:52:20;;;;;;;55.28;35.80;;;3.70;99.90;;;;;;4930135;28;20032;-75
2024/01/23 10:54:47;;;;;;;35.83;23.80;;;3.90;99.90;;;;;;4923280;28;20035;-74
2024/01/23 10:57:25;;;;;;;33.42;22.42;;;4.10;99.90;;;;;;4930638;28;20119;-74
2024/01/23 10:59:51;;;;;;;28.10;18.83;;;4.30;99.90;;;;;;4928530;28;20042;-73
2024/01/23 11:02:30;;;;;;;26.15;17.95;;;4.40;99.90;;;;;;4932570;28;20051;-74
2024/01/23 11:04:57;;;;;;;28.42;19.60;;;4.60;99.90;;;;;;4924058;28;20020;-73
2024/01/23 11:07:37;;;;;;;26.30;18.50;;;4.70;99.90;;;;;;4927775;28;20061;-73
2024/01/23 11:10:24;;;;;;;28.23;18.40;;;4.90;99.90;;;;;;4909695;29;20118;-65
2024/01/23 11:13:18;;;;;;;26.00;18.70;;;5.10;99.90;;;;;;4911908;29;20063;-65
2024/01/23 11:15:44;;;;;;;24.95;18.10;;;5.20;99.90;;;;;;4888737;29;20130;-64
2024/01/23 11:18:25;;;;;;;44.00;27.77;;;5.20;99.90;;;;;;4908545;29;20032;-65
2024/01/23 11:21:09;;;;;;;35.65;23.65;;;5.20;99.90;;;;;;4907325;29;20447;-65
2024/01/23 11:23:36;;;;;;;29.20;19.05;;;5.30;99.90;;;;;;4907107;29;20030;-64
2024/01/23 11:26:14;;;;;;;29.27;19.58;;;5.40;99.90;;;;;;4907497;29;20098;-64
2024/01/23 11:29:04;;;;;;;28.85;18.50;;;5.50;99.90;;;;;;4907064;29;20403;-64
2024/01/23 11:31:36;;;;;;;28.95;21.60;;;5.40;99.90;;;;;;4907071;29;20265;-73
2024/01/23 11:34:21;;;;;;;29.23;20.00;;;5.50;99.90;;;;;;4906071;29;20019;-72
2024/01/23 11:36:47;;;;;;;34.65;22.10;;;5.40;99.90;;;;;;4905897;29;20540;-73
2024/01/23 11:39:18;;;;;;;33.22;21.80;;;5.50;99.90;;;;;;4904863;29;20043;-73
2024/01/23 11:41:52;;;;;;;30.48;18.75;;;5.40;99.90;;;;;;4918703;28;20560;-72
2024/01/23 11:44:18;;;;;;;28.00;19.58;;;5.50;99.90;;;;;;4908144;29;20043;-73
2024/01/23 11:46:47;;;;;;;35.42;26.90;;;5.50;99.90;;;;;;4909054;29;20042;-72
2024/01/23 11:49:14;;;;;;;28.38;20.35;;;5.50;99.90;;;;;;4908804;29;20744;-65
2024/01/23 11:51:40;;;;;;;29.20;20.55;;;5.60;99.90;;;;;;4904929;29;20031;-65
2024/01/23 11:54:10;;;;;;;30.58;22.00;;;5.70;99.90;;;;;;4904933;29;20032;-65
2024/01/23 11:56:37;;;;;;;24.25;17.05;;;5.80;99.90;;;;;;4908524;29;20032;-64
2024/01/23 11:59:03;;;;;;;25.00;18.75;;;5.90;99.90;;;;;;4905809;29;20055;-65
2024/01/23 12:01:30;;;;;;;26.85;19.65;;;6.00;99.90;;;;;;4901282;29;20376;-64
2024/01/23 12:03:56;;;;;;;29.10;19.70;;;6.10;99.90;;;;;;4906781;29;20039;-65
2024/01/23 12:06:23;;;;;;;24.75;17.13;;;6.10;99.90;;;;;;4905469;29;20028;-70
2024/01/23 12:08:50;;;;;;;29.60;20.00;;;6.20;99.90;;;;;;4916062;28;20106;-65
2024/01/23 12:11:17;;;;;;;27.38;18.92;;;6.30;99.90;;;;;;4925466;28;20130;-65
2024/01/23 12:13:47;;;;;;;29.67;19.23;;;6.30;99.90;;;;;;4925209;28;20043;-65
2024/01/23 12:16:13;;;;;;;25.60;18.55;;;6.30;99.90;;;;;;4922658;28;20031;-65
2024/01/23 12:18:38;;;;;;;28.52;20.83;;;6.40;99.90;;;;;;4928390;28;20055;-65
2024/01/23 12:21:05;;;;;;;28.50;19.52;;;6.50;99.90;;;;;;4923504;28;20666;-65
2024/01/23 12:23:32;;;;;;;29.38;19.52;;;6.60;99.90;;;;;;4928513;28;20042;-65
2024/01/23 12:25:59;;;;;;;32.28;22.27;;;6.60;99.90;;;;;;4927236;28;20028;-73
2024/01/23 12:28:24;;;;;;;28.88;20.40;;;6.60;99.90;;;;;;4924397;28;20390;-73
2024/01/23 12:30:50;;;;;;;21.17;14.48;;;6.60;99.90;;;;;;4929868;28;20031;-73
2024/01/23 12:33:17;;;;;;;24.15;14.40;;;6.30;99.90;;;;;;4931659;28;20028;-71